Time;durP1;ratioP1;P1;durP2;ratioP2;P2;SDS_P1;SDS_P2;PMS_P1;PMS_P2;Temp;Humidity;BMP_temperature;BMP_pressure;BME280_temperature;BME280_humidity;BME280_pressure;Samples;Min_cycle;Max_cycle;Signal;HPM_P1;HPM_P2
2022/03/20 00:00:24;;;;;;;;;;;;;;;14.76;53.48;103177.94;1017128;29;639;-77
2022/03/20 00:01:14;;;;;;;;;;;;;;;14.73;52.26;103176.28;1017637;29;644;-79
2022/03/20 00:02:05;;;;;;;;;;;;;;;14.74;52.79;103164.59;1016996;29;753;-79
2022/03/20 00:02:55;;;;;;;;;;;;;;;14.73;52.31;103167.34;1017359;29;1320;-79
2022/03/20 00:03:45;;;;;;;;;;;;;;;14.71;51.99;103170.09;1013749;29;857;-81
2022/03/20 00:04:36;;;;;;;;;;;;;;;14.69;52.31;103161.25;1013123;29;642;-81
2022/03/20 00:05:26;;;;;;;;;;;;;;;14.69;52.50;103166.59;1013615;29;699;-81
2022/03/20 00:06:17;;;;;;;;;;;;;;;14.71;52.43;103164.72;1013196;29;732;-80
2022/03/20 00:07:11;;;;;;;;;;;;;;;14.71;53.40;103163.84;1013084;29;608;-81
2022/03/20 00:08:01;;;;;;;;;;;;;;;14.74;53.07;103163.72;1014439;29;1242;-80
2022/03/20 00:08:54;;;;;;;;;;;;;;;14.72;53.16;103166.47;1017187;29;678;-81
2022/03/20 00:09:46;;;;;;;;;;;;;;;14.73;53.86;103162.84;1016545;29;1898;-81
2022/03/20 00:10:37;;;;;;;;;;;;;;;14.74;53.33;103164.59;1017572;29;620;-81
2022/03/20 00:11:28;;;;;;;;;;;;;;;14.74;52.67;103167.28;1017276;29;752;-81
2022/03/20 00:12:18;;;;;;;;;;;;;;;14.76;52.68;103156.47;1016839;29;618;-81
2022/03/20 00:13:09;;;;;;;;;;;;;;;14.73;52.56;103165.53;1017011;29;635;-81
2022/03/20 00:13:59;;;;;;;;;;;;;;;14.71;53.21;103148.63;1017526;29;729;-82
2022/03/20 00:14:50;;;;;;;;;;;;;;;14.69;52.59;103165.78;1017289;29;733;-82
2022/03/20 00:15:40;;;;;;;;;;;;;;;14.69;52.62;103160.41;1016697;29;631;-83
2022/03/20 00:16:31;;;;;;;;;;;;;;;14.67;53.56;103152.41;1017133;29;654;-83
2022/03/20 00:17:22;;;;;;;;;;;;;;;14.65;52.00;103153.41;1016391;29;611;-83
2022/03/20 00:18:13;;;;;;;;;;;;;;;14.65;51.92;103153.41;1016459;29;686;-83
2022/03/20 00:19:05;;;;;;;;;;;;;;;14.60;52.33;103148.25;1016490;29;615;-83
2022/03/20 00:19:56;;;;;;;;;;;;;;;14.59;52.46;103154.56;1016451;29;706;-82
2022/03/20 00:20:46;;;;;;;;;;;;;;;14.57;52.87;103151.94;1016545;29;626;-85
2022/03/20 00:21:37;;;;;;;;;;;;;;;14.58;52.71;103153.69;1016996;29;772;-84
2022/03/20 00:22:27;;;;;;;;;;;;;;;14.61;53.17;103155.38;1017516;29;698;-83
2022/03/20 00:23:17;;;;;;;;;;;;;;;14.58;52.63;103147.44;1015841;29;1702;-84
2022/03/20 00:24:08;;;;;;;;;;;;;;;14.57;53.12;103145.69;1017582;29;627;-84
2022/03/20 00:24:58;;;;;;;;;;;;;;;14.59;51.95;103154.56;1016025;29;678;-81
2022/03/20 00:25:49;;;;;;;;;;;;;;;14.57;52.71;103143.91;1017048;29;633;-81
2022/03/20 00:26:41;;;;;;;;;;;;;;;14.56;53.05;103144.81;1017601;29;645;-79
2022/03/20 00:27:31;;;;;;;;;;;;;;;14.56;52.24;103144.81;1016991;29;607;-78
2022/03/20 00:28:23;;;;;;;;;;;;;;;14.59;52.97;103143.81;1017439;29;733;-77
2022/03/20 00:29:15;;;;;;;;;;;;;;;14.60;51.90;103145.56;1017532;29;618;-77
2022/03/20 00:30:05;;;;;;;;;;;;;;;14.61;53.32;103141.06;1017580;29;659;-76
2022/03/20 00:30:56;;;;;;;;;;;;;;;14.59;52.91;103152.75;1017632;29;627;-77
2022/03/20 00:31:46;;;;;;;;;;;;;;;14.60;52.22;103140.22;1017005;29;749;-76
2022/03/20 00:32:37;;;;;;;;;;;;;;;14.62;53.45;103145.50;1016922;29;666;-77
2022/03/20 00:33:27;;;;;;;;;;;;;;;14.62;51.50;103143.69;1016874;29;1643;-77
2022/03/20 00:34:17;;;;;;;;;;;;;;;14.61;51.83;103149.13;1017517;29;619;-77
2022/03/20 00:35:08;;;;;;;;;;;;;;;14.62;53.36;103145.50;1017476;29;721;-77
2022/03/20 00:35:58;;;;;;;;;;;;;;;14.59;53.22;103144.69;1016939;29;642;-77
2022/03/20 00:36:49;;;;;;;;;;;;;;;14.59;54.02;103139.34;1017513;29;677;-79
2022/03/20 00:37:39;;;;;;;;;;;;;;;14.59;52.45;103138.47;1016530;29;611;-79
2022/03/20 00:38:29;;;;;;;;;;;;;;;14.59;53.01;103141.16;1017562;29;679;-79
2022/03/20 00:39:20;;;;;;;;;;;;;;;14.60;52.82;103140.22;1017593;29;627;-78
2022/03/20 00:40:10;;;;;;;;;;;;;;;14.63;53.49;103144.56;1017484;29;659;-78
2022/03/20 00:41:01;;;;;;;;;;;;;;;14.60;53.51;103129.47;1017523;29;647;-80
2022/03/20 00:41:51;;;;;;;;;;;;;;;14.62;52.75;103138.31;1016449;29;679;-80
2022/03/20 00:42:42;;;;;;;;;;;;;;;14.61;53.29;103130.34;1016619;29;1587;-79
2022/03/20 00:43:32;;;;;;;;;;;;;;;14.58;54.40;103126.84;1017008;29;627;-79
2022/03/20 00:44:22;;;;;;;;;;;;;;;14.60;53.79;103126.78;1016926;29;690;-78
2022/03/20 00:45:13;;;;;;;;;;;;;;;14.57;54.55;103134.97;1016962;29;675;-81
2022/03/20 00:46:04;;;;;;;;;;;;;;;14.56;53.64;103133.22;1017751;29;830;-80
2022/03/20 00:46:54;;;;;;;;;;;;;;;14.55;53.03;103128.78;1017664;29;631;-80
2022/03/20 00:47:44;;;;;;;;;;;;;;;14.52;54.28;103132.47;1017758;29;652;-79
2022/03/20 00:48:35;;;;;;;;;;;;;;;14.53;53.39;103125.31;1017760;29;615;-78
2022/03/20 00:49:25;;;;;;;;;;;;;;;14.54;53.85;103124.38;1017618;29;1961;-78
2022/03/20 00:50:16;;;;;;;;;;;;;;;14.52;53.72;103123.56;1017648;29;608;-77
2022/03/20 00:51:10;;;;;;;;;;;;;;;14.53;54.40;103128.00;1017652;29;643;-74
2022/03/20 00:52:01;;;;;;;;;;;;;;;14.54;54.00;103127.06;1017302;29;626;-79
2022/03/20 00:52:51;;;;;;;;;;;;;;;14.52;53.46;103124.44;1017672;29;663;-79
2022/03/20 00:53:42;;;;;;;;;;;;;;;14.50;53.92;103112.06;1017796;29;625;-80
2022/03/20 00:54:32;;;;;;;;;;;;;;;14.51;53.26;103113.81;1017742;29;611;-79
2022/03/20 00:55:22;;;;;;;;;;;;;;;14.47;52.97;103118.44;1017663;29;687;-80
2022/03/20 00:56:14;;;;;;;;;;;;;;;14.47;54.27;103118.44;1018238;29;634;-81
2022/03/20 00:57:04;;;;;;;;;;;;;;;14.47;53.96;103114.88;1017755;29;881;-81
2022/03/20 00:57:54;;;;;;;;;;;;;;;14.47;53.00;103115.75;1017412;29;659;-81
2022/03/20 00:58:46;;;;;;;;;;;;;;;14.48;54.21;103114.81;1018641;29;643;-79
2022/03/20 00:59:36;;;;;;;;;;;;;;;14.48;54.90;103117.50;1018152;29;595;-79
2022/03/20 01:00:27;;;;;;;;;;;;;;;14.48;53.88;103113.94;1017370;29;687;-81
2022/03/20 01:01:17;;;;;;;;;;;;;;;14.47;53.43;103114.88;1018468;29;631;-80
2022/03/20 01:02:08;;;;;;;;;;;;;;;14.49;52.93;103105.81;1017642;29;650;-78
2022/03/20 01:02:59;;;;;;;;;;;;;;;14.49;53.80;103105.81;1017666;29;726;-79
2022/03/20 01:03:51;;;;;;;;;;;;;;;14.47;53.55;103104.16;1017689;29;691;-80
2022/03/20 01:04:42;;;;;;;;;;;;;;;14.48;53.46;103098.72;1017624;29;670;-80
2022/03/20 01:05:32;;;;;;;;;;;;;;;14.46;54.26;103100.59;1017634;29;710;-80
2022/03/20 01:06:22;;;;;;;;;;;;;;;14.44;53.77;103096.22;1017572;29;643;-80
2022/03/20 01:07:13;;;;;;;;;;;;;;;14.44;54.11;103096.22;1017607;29;627;-80
2022/03/20 01:08:03;;;;;;;;;;;;;;;14.45;53.06;103098.84;1017510;29;1218;-81
2022/03/20 01:08:54;;;;;;;;;;;;;;;14.44;54.68;103090.88;1017033;29;608;-80
2022/03/20 01:09:44;;;;;;;;;;;;;;;14.45;54.09;103097.97;1017025;29;1919;-80
2022/03/20 01:10:35;;;;;;;;;;;;;;;14.43;54.11;103089.13;1017200;29;615;-81
2022/03/20 01:11:25;;;;;;;;;;;;;;;14.42;54.73;103082.00;1017039;29;686;-79
2022/03/20 01:12:16;;;;;;;;;;;;;;;14.42;54.01;103087.38;1017017;29;557;-80
2022/03/20 01:13:06;;;;;;;;;;;;;;;14.42;53.30;103088.25;1018047;29;1561;-80
2022/03/20 01:13:57;;;;;;;;;;;;;;;14.41;53.59;103091.88;1017592;29;620;-80
2022/03/20 01:14:47;;;;;;;;;;;;;;;14.40;53.99;103090.13;1017519;29;1653;-80
2022/03/20 01:15:37;;;;;;;;;;;;;;;14.41;54.06;103091.00;1018130;29;686;-80
2022/03/20 01:16:28;;;;;;;;;;;;;;;14.40;53.34;103081.16;1017575;29;666;-80
2022/03/20 01:17:18;;;;;;;;;;;;;;;14.37;54.13;103084.00;1018138;29;642;-80
2022/03/20 01:18:09;;;;;;;;;;;;;;;14.36;54.50;103082.25;1018029;29;903;-80
2022/03/20 01:18:59;;;;;;;;;;;;;;;14.35;54.28;103084.06;1018161;29;709;-80
2022/03/20 01:19:50;;;;;;;;;;;;;;;14.36;53.57;103075.06;1018167;29;647;-80
2022/03/20 01:20:40;;;;;;;;;;;;;;;14.35;53.95;103080.50;1017559;29;635;-80
2022/03/20 01:21:31;;;;;;;;;;;;;;;14.32;53.90;103076.19;1018187;29;655;-80
2022/03/20 01:22:21;;;;;;;;;;;;;;;14.34;54.10;103070.72;1017971;29;599;-79
2022/03/20 01:23:12;;;;;;;;;;;;;;;14.35;52.55;103072.44;1018117;29;587;-78
2022/03/20 01:24:03;;;;;;;;;;;;;;;14.34;53.77;103074.25;1017709;29;659;-77
2022/03/20 01:24:53;;;;;;;;;;;;;;;14.34;53.14;103070.72;1017568;29;767;-77
2022/03/20 01:25:44;;;;;;;;;;;;;;;14.31;54.18;103066.38;1018064;29;595;-77
2022/03/20 01:26:34;;;;;;;;;;;;;;;14.29;54.63;103068.25;1018057;29;626;-77
2022/03/20 01:27:25;;;;;;;;;;;;;;;14.31;54.18;103069.06;1018112;29;608;-78
2022/03/20 01:28:15;;;;;;;;;;;;;;;14.31;53.95;103065.50;1018143;29;631;-77
2022/03/20 01:29:06;;;;;;;;;;;;;;;14.32;53.87;103061.88;1018144;29;619;-77
2022/03/20 01:29:56;;;;;;;;;;;;;;;14.28;53.89;103058.47;1018200;29;670;-81
2022/03/20 01:30:47;;;;;;;;;;;;;;;14.28;53.61;103062.97;1018016;29;643;-83
2022/03/20 01:31:37;;;;;;;;;;;;;;;14.25;54.07;103059.47;1017604;29;748;-83
2022/03/20 01:32:28;;;;;;;;;;;;;;;14.27;53.59;103063.91;1017578;29;636;-82
2022/03/20 01:33:18;;;;;;;;;;;;;;;14.24;53.91;103065.78;1018061;29;635;-83
2022/03/20 01:34:09;;;;;;;;;;;;;;;14.27;53.87;103058.53;1018260;29;710;-83
2022/03/20 01:34:59;;;;;;;;;;;;;;;14.25;53.64;103056.78;1018240;29;686;-82
2022/03/20 01:35:50;;;;;;;;;;;;;;;14.27;53.95;103053.16;1017093;29;674;-78
2022/03/20 01:36:41;;;;;;;;;;;;;;;14.27;53.76;103056.72;1017552;29;623;-78
2022/03/20 01:37:31;;;;;;;;;;;;;;;14.27;54.70;103046.00;1018119;29;801;-78
2022/03/20 01:38:22;;;;;;;;;;;;;;;14.29;54.55;103053.97;1018115;29;686;-78
2022/03/20 01:39:13;;;;;;;;;;;;;;;14.30;54.29;103055.72;1017702;29;651;-77
2022/03/20 01:40:03;;;;;;;;;;;;;;;14.31;53.89;103052.09;1017256;29;701;-78
2022/03/20 01:40:54;;;;;;;;;;;;;;;14.32;54.47;103052.03;1017505;29;640;-78
2022/03/20 01:41:46;;;;;;;;;;;;;;;14.33;53.13;103056.44;1018068;29;602;-78
2022/03/20 01:42:39;;;;;;;;;;;;;;;14.29;54.12;103049.47;1017854;29;1630;-77
2022/03/20 01:43:29;;;;;;;;;;;;;;;14.28;54.88;103045.06;1017480;29;635;-77
2022/03/20 01:44:20;;;;;;;;;;;;;;;14.27;53.59;103056.72;1017389;29;1603;-78
2022/03/20 01:45:11;;;;;;;;;;;;;;;14.24;54.66;103059.53;1017528;29;694;-79
2022/03/20 01:46:02;;;;;;;;;;;;;;;14.20;54.06;103040.03;1017531;29;599;-79
2022/03/20 01:46:52;;;;;;;;;;;;;;;14.18;54.25;103039.22;1017509;29;706;-79
2022/03/20 01:47:46;;;;;;;;;;;;;;;14.15;54.51;103042.03;1017436;29;666;-79
2022/03/20 01:48:37;;;;;;;;;;;;;;;14.18;54.16;103046.41;1017511;29;619;-79
2022/03/20 01:49:27;;;;;;;;;;;;;;;14.18;54.48;103036.53;1017358;29;1969;-78
2022/03/20 01:50:18;;;;;;;;;;;;;;;14.18;53.61;103036.53;1017074;29;689;-78
2022/03/20 01:51:08;;;;;;;;;;;;;;;14.17;54.73;103039.28;1017515;29;623;-78
2022/03/20 01:52:11;;;;;;;;;;;;;;;14.20;53.49;103039.16;1017577;29;682;-77
2022/03/20 01:53:01;;;;;;;;;;;;;;;14.20;54.41;103036.47;1017530;29;701;-77
2022/03/20 01:53:52;;;;;;;;;;;;;;;14.18;54.28;103039.22;1017411;29;675;-78
2022/03/20 01:54:42;;;;;;;;;;;;;;;14.14;53.90;103034.97;1017424;29;655;-78
2022/03/20 01:55:33;;;;;;;;;;;;;;;14.14;53.58;103031.41;1017521;29;733;-78
2022/03/20 01:56:23;;;;;;;;;;;;;;;14.14;54.58;103029.59;1017223;29;631;-80
2022/03/20 01:57:14;;;;;;;;;;;;;;;14.14;53.56;103029.59;1017531;29;686;-81
2022/03/20 01:58:04;;;;;;;;;;;;;;;14.15;53.80;103027.78;1017394;29;638;-86
2022/03/20 01:58:55;;;;;;;;;;;;;;;14.15;54.23;103031.31;1017508;29;649;-86
2022/03/20 01:59:45;;;;;;;;;;;;;;;14.15;53.81;103025.94;1017401;29;623;-81
2022/03/20 02:00:35;;;;;;;;;;;;;;;14.15;54.35;103031.31;1017478;29;718;-74
2022/03/20 02:01:26;;;;;;;;;;;;;;;14.13;54.45;103026.97;1017472;29;639;-75
2022/03/20 02:02:16;;;;;;;;;;;;;;;14.10;54.87;103033.34;1017417;29;662;-77
2022/03/20 02:03:07;;;;;;;;;;;;;;;14.12;54.71;103025.25;1017448;29;690;-80
2022/03/20 02:03:57;;;;;;;;;;;;;;;14.13;53.95;103017.13;1017388;29;654;-76
2022/03/20 02:04:47;;;;;;;;;;;;;;;14.12;54.74;103025.25;1016682;29;690;-79
2022/03/20 02:05:38;;;;;;;;;;;;;;;14.12;54.13;103025.25;1018251;29;627;-78
2022/03/20 02:06:28;;;;;;;;;;;;;;;14.11;54.68;103026.19;1017319;29;670;-78
2022/03/20 02:07:20;;;;;;;;;;;;;;;14.11;54.63;103020.81;1017506;29;666;-81
2022/03/20 02:08:14;;;;;;;;;;;;;;;14.09;54.22;103012.84;1017318;29;1270;-77
2022/03/20 02:09:04;;;;;;;;;;;;;;;14.09;53.77;103018.19;1016875;29;678;-77
2022/03/20 02:09:54;;;;;;;;;;;;;;;14.08;53.42;103012.91;1017021;29;682;-82
2022/03/20 02:10:45;;;;;;;;;;;;;;;14.08;54.20;103018.28;1017994;29;626;-77
2022/03/20 02:11:35;;;;;;;;;;;;;;;14.08;54.33;103015.59;1017321;29;1176;-79
2022/03/20 02:12:26;;;;;;;;;;;;;;;14.07;54.74;103011.16;1015270;29;1273;-78
2022/03/20 02:13:16;;;;;;;;;;;;;;;14.04;54.41;103006.81;1015484;29;1089;-76
2022/03/20 02:14:07;;;;;;;;;;;;;;;14.06;53.62;103009.41;1017815;29;1112;-76
2022/03/20 02:14:58;;;;;;;;;;;;;;;14.06;54.04;103004.94;1017863;29;1165;-77
2022/03/20 02:15:49;;;;;;;;;;;;;;;14.06;53.92;103001.38;1017437;29;1127;-79
2022/03/20 02:16:39;;;;;;;;;;;;;;;14.04;54.10;103001.44;1013049;29;1097;-79
2022/03/20 02:17:30;;;;;;;;;;;;;;;14.01;54.40;102995.34;1017407;29;1258;-80
2022/03/20 02:18:20;;;;;;;;;;;;;;;14.00;53.81;103005.19;1017868;29;1133;-77
2022/03/20 02:19:12;;;;;;;;;;;;;;;13.97;53.33;102993.75;1017456;29;1052;-80
2022/03/20 02:20:03;;;;;;;;;;;;;;;13.97;53.99;103000.00;1016833;29;1093;-80
2022/03/20 02:20:55;;;;;;;;;;;;;;;13.98;54.50;102995.47;1015557;29;1133;-79
2022/03/20 02:21:45;;;;;;;;;;;;;;;13.99;54.15;102992.72;1017152;29;1093;-78
2022/03/20 02:22:36;;;;;;;;;;;;;;;14.00;53.91;102994.47;1017723;29;1085;-77
2022/03/20 02:23:26;;;;;;;;;;;;;;;14.02;53.95;102997.97;1017821;29;1191;-79
2022/03/20 02:24:17;;;;;;;;;;;;;;;14.04;53.43;102990.72;1017834;29;1239;-77
2022/03/20 02:25:08;;;;;;;;;;;;;;;14.05;54.24;102989.78;1017729;29;1147;-76
2022/03/20 02:25:58;;;;;;;;;;;;;;;14.04;53.23;102988.03;1017816;29;1093;-75
2022/03/20 02:26:49;;;;;;;;;;;;;;;14.01;54.79;102981.94;1017218;29;1183;-75
2022/03/20 02:27:39;;;;;;;;;;;;;;;14.02;54.49;102981.88;1017832;29;1137;-77
2022/03/20 02:28:30;;;;;;;;;;;;;;;14.01;54.61;102972.09;1017805;29;1123;-77
2022/03/20 02:29:20;;;;;;;;;;;;;;;14.00;54.11;102973.03;1015823;29;1138;-78
2022/03/20 02:30:15;;;;;;;;;;;;;;;13.99;54.72;102965.91;1017586;29;1212;-75
2022/03/20 02:31:06;;;;;;;;;;;;;;;13.95;53.86;102969.72;1016425;29;1237;-75
2022/03/20 02:31:58;;;;;;;;;;;;;;;13.95;54.33;102969.72;1017826;29;1260;-74
2022/03/20 02:32:49;;;;;;;;;;;;;;;13.93;54.29;102963.53;1016805;29;1292;-76
2022/03/20 02:33:40;;;;;;;;;;;;;;;13.92;54.47;102956.44;1015685;29;1273;-76
2022/03/20 02:34:31;;;;;;;;;;;;;;;13.92;54.26;102958.25;1017803;29;1236;-77
2022/03/20 02:35:22;;;;;;;;;;;;;;;13.93;53.77;102963.53;1016509;29;1269;-77
2022/03/20 02:36:12;;;;;;;;;;;;;;;13.93;54.09;102960.84;1017274;29;1336;-77
2022/03/20 02:37:02;;;;;;;;;;;;;;;13.91;53.86;102962.75;1016064;29;1280;-77
2022/03/20 02:37:53;;;;;;;;;;;;;;;13.93;54.81;102954.63;1017738;29;1348;-75
2022/03/20 02:38:46;;;;;;;;;;;;;;;13.92;54.03;102952.88;1017782;29;1221;-74
2022/03/20 02:39:36;;;;;;;;;;;;;;;13.90;54.52;102950.28;1017182;29;1240;-74
2022/03/20 02:40:26;;;;;;;;;;;;;;;13.91;54.47;102952.00;1016530;29;1174;-74
2022/03/20 02:41:17;;;;;;;;;;;;;;;13.92;54.18;102951.06;1017434;29;1191;-74
2022/03/20 02:42:07;;;;;;;;;;;;;;;13.93;54.13;102944.78;1017867;29;1089;-80
2022/03/20 02:42:58;;;;;;;;;;;;;;;13.93;54.50;102949.28;1017648;29;1200;-77
2022/03/20 02:43:49;;;;;;;;;;;;;;;13.94;53.83;102945.66;1016207;29;1125;-76
2022/03/20 02:44:40;;;;;;;;;;;;;;;13.92;55.31;102955.56;1017078;29;1191;-76
2022/03/20 02:45:31;;;;;;;;;;;;;;;13.92;54.79;102945.72;1017767;29;1100;-77
2022/03/20 02:46:21;;;;;;;;;;;;;;;13.92;54.10;102944.84;1015374;29;1145;-75
2022/03/20 02:47:11;;;;;;;;;;;;;;;13.93;55.22;102939.41;1016571;29;1101;-74
2022/03/20 02:48:04;;;;;;;;;;;;;;;13.91;54.62;102946.66;1014920;29;1089;-74
2022/03/20 02:48:54;;;;;;;;;;;;;;;13.89;55.00;102943.16;1017194;29;1177;-75
2022/03/20 02:49:45;;;;;;;;;;;;;;;13.91;53.54;102938.63;1012906;29;1895;-74
2022/03/20 02:50:35;;;;;;;;;;;;;;;13.92;53.94;102945.72;1015463;29;1102;-74
2022/03/20 02:51:25;;;;;;;;;;;;;;;13.92;54.57;102937.66;1015833;29;1144;-75
2022/03/20 02:52:16;;;;;;;;;;;;;;;13.93;53.74;102939.41;1017755;29;1060;-74
2022/03/20 02:53:11;;;;;;;;;;;;;;;13.93;54.55;102936.72;1016292;29;1105;-74
2022/03/20 02:54:01;;;;;;;;;;;;;;;13.91;54.94;102941.28;1015545;29;1054;-77
2022/03/20 02:54:52;;;;;;;;;;;;;;;13.86;54.28;102938.81;1017702;29;1144;-76
2022/03/20 02:55:44;;;;;;;;;;;;;;;13.87;55.04;102942.38;1015776;29;1141;-74
2022/03/20 02:56:35;;;;;;;;;;;;;;;13.87;54.36;102939.69;1017640;29;1197;-76
2022/03/20 02:57:25;;;;;;;;;;;;;;;13.85;54.22;102930.84;1016373;29;1089;-76
2022/03/20 02:58:16;;;;;;;;;;;;;;;13.85;54.76;102933.53;1016989;29;1136;-73
2022/03/20 02:59:07;;;;;;;;;;;;;;;13.83;54.09;102938.06;1016561;29;1100;-73
2022/03/20 03:00:00;;;;;;;;;;;;;;;13.82;54.40;102931.84;1017358;29;1203;-78
2022/03/20 03:00:52;;;;;;;;;;;;;;;13.79;54.39;102931.13;1016360;29;1147;-78
2022/03/20 03:01:44;;;;;;;;;;;;;;;13.78;54.75;102932.06;1016359;29;1105;-78
2022/03/20 03:02:35;;;;;;;;;;;;;;;13.78;54.81;102922.22;1016378;29;1098;-78
2022/03/20 03:03:25;;;;;;;;;;;;;;;13.76;53.94;102921.41;1016340;29;1157;-79
2022/03/20 03:04:23;;;;;;;;;;;;;;;13.76;54.51;102931.28;1017430;29;1360;-79
2022/03/20 03:05:14;;;;;;;;;;;;;;;13.78;54.71;102919.53;1017915;29;1209;-80
2022/03/20 03:06:07;;;;;;;;;;;;;;;13.80;54.50;102922.13;1016722;29;1182;-79
2022/03/20 03:06:58;;;;;;;;;;;;;;;13.81;54.29;102919.38;1016550;28;1206;-72
2022/03/20 03:11:15;;;;;;;;;;;;;;;13.84;54.38;102908.53;1017693;29;1260;-79
2022/03/20 03:12:06;;;;;;;;;;;;;;;13.83;54.16;102912.16;1015956;29;1237;-78
2022/03/20 03:12:56;;;;;;;;;;;;;;;13.83;54.57;102912.16;1016713;29;1177;-79
2022/03/20 03:13:47;;;;;;;;;;;;;;;13.83;54.88;102906.78;1015390;29;1237;-79
2022/03/20 03:15:47;;;;;;;;;;;;;;;13.82;53.75;102920.25;1016784;29;1186;-78
2022/03/20 03:16:37;;;;;;;;;;;;;;;13.80;54.61;102914.09;1014886;29;1190;-78
2022/03/20 03:17:28;;;;;;;;;;;;;;;13.78;53.63;102905.28;1016336;29;1169;-78
2022/03/20 03:18:18;;;;;;;;;;;;;;;13.76;53.67;102910.69;1016376;29;1293;-77
2022/03/20 03:19:12;;;;;;;;;;;;;;;13.77;54.30;102908.91;1017600;29;1185;-76
2022/03/20 03:20:03;;;;;;;;;;;;;;;13.76;54.53;102909.84;1017599;29;1236;-76
2022/03/20 03:20:53;;;;;;;;;;;;;;;13.76;54.24;102909.84;1016984;29;1236;-77
2022/03/20 03:21:43;;;;;;;;;;;;;;;13.77;54.57;102908.91;1015701;29;1229;-77
2022/03/20 03:22:34;;;;;;;;;;;;;;;13.77;54.85;102906.22;1017654;29;1181;-76
2022/03/20 03:23:27;;;;;;;;;;;;;;;13.75;54.03;102898.25;1015789;29;1154;-76
2022/03/20 03:24:18;;;;;;;;;;;;;;;13.76;54.08;102891.94;1017588;29;1181;-77
2022/03/20 03:25:08;;;;;;;;;;;;;;;13.76;54.51;102894.63;1016347;29;1241;-77
2022/03/20 03:25:58;;;;;;;;;;;;;;;13.76;55.22;102900.00;1017061;29;1205;-77
2022/03/20 03:26:49;;;;;;;;;;;;;;;13.78;54.42;102897.25;1016491;29;1197;-76
2022/03/20 03:27:39;;;;;;;;;;;;;;;13.78;54.39;102903.47;1017480;29;1204;-77
2022/03/20 03:28:34;;;;;;;;;;;;;;;13.77;55.06;102903.53;1014283;29;635;-79
2022/03/20 03:29:24;;;;;;;;;;;;;;;13.78;54.13;102908.81;1012595;29;881;-81
2022/03/20 03:30:15;;;;;;;;;;;;;;;13.78;55.24;102908.81;1013081;29;663;-85
2022/03/20 03:31:05;;;;;;;;;;;;;;;13.80;54.99;102906.06;1013847;29;623;-83
2022/03/20 03:31:55;;;;;;;;;;;;;;;13.79;54.49;102898.97;1013559;29;1572;-83
2022/03/20 03:32:46;;;;;;;;;;;;;;;13.81;54.61;102897.06;1014363;29;639;-84
2022/03/20 03:33:36;;;;;;;;;;;;;;;13.82;54.37;102890.78;1013358;29;713;-84
2022/03/20 03:35:57;;;;;;;;;;;;;;;13.83;54.50;102892.50;1013048;29;1205;-85
2022/03/20 03:36:47;;;;;;;;;;;;;;;13.82;54.86;102893.44;1013721;29;703;-86
2022/03/20 03:37:37;;;;;;;;;;;;;;;13.77;54.22;102890.13;1013727;29;595;-80
2022/03/20 03:38:30;;;;;;;;;;;;;;;13.75;54.85;102883.97;1013678;29;679;-80
2022/03/20 03:39:22;;;;;;;;;;;;;;;13.74;54.80;102882.22;1012685;29;565;-80
2022/03/20 03:40:12;;;;;;;;;;;;;;;13.75;53.62;102892.00;1013746;29;667;-81
2022/03/20 03:41:03;;;;;;;;;;;;;;;13.74;55.00;102890.28;1012672;29;707;-81
2022/03/20 03:41:53;;;;;;;;;;;;;;;13.74;55.28;102888.47;1013644;29;675;-81
2022/03/20 03:42:44;;;;;;;;;;;;;;;13.74;54.77;102884.91;1013698;29;632;-82
2022/03/20 03:43:36;;;;;;;;;;;;;;;13.74;54.52;102885.78;1013867;29;709;-82
2022/03/20 03:44:27;;;;;;;;;;;;;;;13.76;53.74;102883.03;1012714;29;675;-82
2022/03/20 03:45:17;;;;;;;;;;;;;;;13.76;54.44;102881.22;1012595;29;698;-83
2022/03/20 03:46:08;;;;;;;;;;;;;;;13.75;55.13;102875.94;1011957;29;690;-84
2022/03/20 03:46:58;;;;;;;;;;;;;;;13.75;54.98;102882.16;1013514;29;670;-83
2022/03/20 03:47:48;;;;;;;;;;;;;;;13.74;55.19;102868.84;1013299;29;695;-80
2022/03/20 03:48:39;;;;;;;;;;;;;;;13.74;54.99;102874.19;1013173;29;722;-82
2022/03/20 03:49:30;;;;;;;;;;;;;;;13.73;54.87;102867.97;1013747;29;1928;-82
2022/03/20 03:50:20;;;;;;;;;;;;;;;13.74;55.60;102868.84;1013777;29;654;-83
2022/03/20 03:51:11;;;;;;;;;;;;;;;13.73;55.68;102870.66;1013697;29;640;-84
2022/03/20 03:52:01;;;;;;;;;;;;;;;13.75;54.46;102865.22;1013758;29;627;-81
2022/03/20 03:52:51;;;;;;;;;;;;;;;13.73;54.79;102862.59;1012362;29;636;-82
2022/03/20 03:53:42;;;;;;;;;;;;;;;13.70;55.82;102872.59;1013320;29;641;-81
2022/03/20 03:54:32;;;;;;;;;;;;;;;13.72;54.48;102863.53;1013285;29;667;-83
2022/03/20 03:55:23;;;;;;;;;;;;;;;13.73;55.17;102859.06;1013743;29;650;-78
2022/03/20 03:56:13;;;;;;;;;;;;;;;13.74;55.07;102863.47;1012642;29;623;-76
2022/03/20 03:57:04;;;;;;;;;;;;;;;13.75;55.08;102867.91;1013701;29;670;-77
2022/03/20 03:57:55;;;;;;;;;;;;;;;13.74;54.46;102864.34;1013183;29;729;-76
2022/03/20 03:58:46;;;;;;;;;;;;;;;13.75;54.84;102867.91;1013681;29;656;-76
2022/03/20 03:59:36;;;;;;;;;;;;;;;13.73;55.74;102867.97;1013793;29;779;-76
2022/03/20 04:00:27;;;;;;;;;;;;;;;13.72;55.28;102866.22;1012845;29;765;-77
2022/03/20 04:01:17;;;;;;;;;;;;;;;13.71;55.16;102859.13;1015272;29;1320;-76
2022/03/20 04:02:08;;;;;;;;;;;;;;;13.73;55.68;102870.66;1017282;29;1337;-77
2022/03/20 04:02:59;;;;;;;;;;;;;;;13.71;55.46;102859.13;1013657;29;647;-77
2022/03/20 04:03:49;;;;;;;;;;;;;;;13.74;55.26;102860.78;1013839;29;635;-75
2022/03/20 04:04:41;;;;;;;;;;;;;;;13.74;55.09;102860.78;1017122;29;690;-75
2022/03/20 04:05:31;;;;;;;;;;;;;;;13.75;55.41;102868.78;1017028;29;641;-74
2022/03/20 04:06:22;;;;;;;;;;;;;;;13.74;54.57;102852.75;1017156;29;664;-76
2022/03/20 04:07:12;;;;;;;;;;;;;;;13.73;55.28;102861.75;1016638;29;1284;-75
2022/03/20 04:08:03;;;;;;;;;;;;;;;13.70;55.22;102854.69;1017617;29;1160;-75
2022/03/20 04:08:53;;;;;;;;;;;;;;;13.71;54.82;102853.75;1017623;29;619;-73
2022/03/20 04:09:44;;;;;;;;;;;;;;;13.71;55.38;102852.91;1017585;29;1899;-74
2022/03/20 04:10:34;;;;;;;;;;;;;;;13.70;55.36;102846.66;1017692;29;639;-75
2022/03/20 04:11:25;;;;;;;;;;;;;;;13.70;55.33;102845.78;1017611;29;694;-74
2022/03/20 04:12:15;;;;;;;;;;;;;;;13.69;55.41;102842.25;1016314;29;1602;-74
2022/03/20 04:13:06;;;;;;;;;;;;;;;13.69;55.20;102844.06;1017628;29;603;-74
2022/03/20 04:13:57;;;;;;;;;;;;;;;13.70;55.97;102849.34;1017064;29;721;-74
2022/03/20 04:14:48;;;;;;;;;;;;;;;13.69;54.49;102838.69;1017310;29;1308;-78
2022/03/20 04:15:38;;;;;;;;;;;;;;;13.70;56.10;102840.44;1017002;29;721;-74
2022/03/20 04:16:29;;;;;;;;;;;;;;;13.69;55.68;102844.94;1017076;29;713;-73
2022/03/20 04:17:19;;;;;;;;;;;;;;;13.68;55.08;102842.31;1017506;29;808;-74
2022/03/20 04:18:12;;;;;;;;;;;;;;;13.67;55.16;102844.13;1017555;29;546;-73
2022/03/20 04:19:02;;;;;;;;;;;;;;;13.66;55.17;102844.19;1017577;29;611;-74
2022/03/20 04:19:52;;;;;;;;;;;;;;;13.66;55.07;102844.19;1018417;29;807;-74
2022/03/20 04:20:43;;;;;;;;;;;;;;;13.67;55.19;102841.44;1018374;29;695;-74
2022/03/20 04:21:33;;;;;;;;;;;;;;;13.67;55.17;102840.56;1017900;29;655;-76
2022/03/20 04:22:24;;;;;;;;;;;;;;;13.68;55.81;102840.50;1018475;29;651;-76
2022/03/20 04:24:23;;;;;;;;;;;;;;;13.68;54.82;102839.63;1018480;29;865;-75
2022/03/20 04:25:14;;;;;;;;;;;;;;;13.67;56.14;102836.09;1018404;29;658;-75
2022/03/20 04:26:04;;;;;;;;;;;;;;;13.67;54.93;102832.53;1018377;29;595;-76
2022/03/20 04:26:55;;;;;;;;;;;;;;;13.65;55.51;102837.97;1017901;29;741;-76
2022/03/20 04:27:45;;;;;;;;;;;;;;;13.64;55.49;102830.00;1018183;29;631;-75
2022/03/20 04:28:36;;;;;;;;;;;;;;;13.64;54.85;102835.34;1017692;29;690;-75
2022/03/20 04:29:30;;;;;;;;;;;;;;;13.65;55.30;102826.38;1018358;29;647;-76
2022/03/20 04:30:20;;;;;;;;;;;;;;;13.67;55.26;102824.50;1018471;29;686;-75
2022/03/20 04:31:15;;;;;;;;;;;;;;;13.65;54.76;102821.00;1018423;29;647;-76
2022/03/20 04:32:05;;;;;;;;;;;;;;;13.67;56.06;102821.81;1017556;29;1629;-76
2022/03/20 04:32:57;;;;;;;;;;;;;;;13.66;55.94;102817.41;1014392;29;1428;-75
2022/03/20 04:33:48;;;;;;;;;;;;;;;13.64;55.45;102817.47;1013953;29;639;-75